createdAt,value
2023-05-11T00:00:19.813Z,100827.53
2023-05-11T00:00:44.191Z,100827.53
2023-05-11T00:01:06.459Z,100827.53
2023-05-11T00:01:28.420Z,100838.00
2023-05-11T00:01:50.009Z,100832.41
2023-05-11T00:02:12.323Z,100834.13
2023-05-11T00:02:35.146Z,100830.66
2023-05-11T00:02:57.366Z,100830.13
2023-05-11T00:03:19.171Z,100836.19
2023-05-11T00:03:41.040Z,100836.84
2023-05-11T00:04:29.573Z,100839.97
2023-05-11T00:05:11.071Z,100836.97
2023-05-11T00:05:32.730Z,100828.88
2023-05-11T00:05:55.482Z,100825.34
2023-05-11T00:06:17.110Z,100829.66
2023-05-11T00:06:38.855Z,100832.25
2023-05-11T00:07:00.644Z,100836.69
2023-05-11T00:07:22.315Z,100822.59
2023-05-11T00:07:44.940Z,100831.31
2023-05-11T00:08:53.979Z,100831.25
2023-05-11T00:09:18.586Z,100828.47
2023-05-11T00:09:42.625Z,100838.16
2023-05-11T00:10:04.860Z,100835.56
2023-05-11T00:10:31.517Z,100833.81
2023-05-11T00:10:56.750Z,100835.56
2023-05-11T00:11:22.128Z,100832.88
2023-05-11T00:11:44.050Z,100830.22
2023-05-11T00:12:09.100Z,100833.69
2023-05-11T00:12:32.537Z,100831.00
2023-05-11T00:12:54.166Z,100834.56
2023-05-11T00:13:19.396Z,100836.50
2023-05-11T00:13:41.591Z,100829.50
2023-05-11T00:14:07.794Z,100832.19
2023-05-11T00:14:32.788Z,100829.56
2023-05-11T00:14:54.370Z,100828.56
2023-05-11T00:15:17.361Z,100831.69
2023-05-11T00:15:42.432Z,100825.66
2023-05-11T00:16:07.347Z,100832.75
2023-05-11T00:16:29.216Z,100831.94
2023-05-11T00:16:51.363Z,100828.38
2023-05-11T00:17:19.167Z,100827.44
2023-05-11T00:17:40.827Z,100824.78
2023-05-11T00:18:03.493Z,100824.63
2023-05-11T00:18:27.997Z,100820.69
2023-05-11T00:18:53.333Z,100822.72
2023-05-11T00:19:16.479Z,100828.19
2023-05-11T00:19:38.401Z,100827.22
2023-05-11T00:20:00.367Z,100830.69
2023-05-11T00:20:24.582Z,100827.06
2023-05-11T00:20:55.014Z,100833.94
2023-05-11T00:21:18.483Z,100823.97
2023-05-11T00:21:40.952Z,100826.59
2023-05-11T00:22:06.410Z,100833.75
2023-05-11T00:22:31.574Z,100823.13
2023-05-11T00:22:55.325Z,100825.78
2023-05-11T00:23:17.210Z,100820.53
2023-05-11T00:23:39.809Z,100821.38
2023-05-11T00:24:01.739Z,100824.91
2023-05-11T00:24:23.449Z,100814.78
2023-05-11T00:25:27.069Z,100824.41
2023-05-11T00:25:50.346Z,100818.94
2023-05-11T00:26:21.379Z,100813.69
2023-05-11T00:27:00.750Z,100819.81
2023-05-11T00:27:23.795Z,100824.47
2023-05-11T00:27:47.167Z,100825.81
2023-05-11T00:29:19.717Z,100816.91
2023-05-11T00:29:41.378Z,100823.84
2023-05-11T00:30:02.983Z,100830.13
2023-05-11T00:30:24.695Z,100831.00
2023-05-11T00:30:47.294Z,100822.03
2023-05-11T00:31:08.994Z,100821.00
2023-05-11T00:31:30.753Z,100822.66
2023-05-11T00:31:52.530Z,100825.16
2023-05-11T00:32:14.156Z,100824.28
2023-05-11T00:32:36.927Z,100824.22
2023-05-11T00:32:58.662Z,100828.56
2023-05-11T00:33:20.309Z,100825.97
2023-05-11T00:33:41.891Z,100832.09
2023-05-11T00:34:04.531Z,100828.41
2023-05-11T00:34:26.708Z,100829.28
2023-05-11T00:34:48.776Z,100824.91
2023-05-11T00:35:11.021Z,100825.78
2023-05-11T00:35:34.039Z,100829.28
2023-05-11T00:35:56.952Z,100819.41
2023-05-11T00:36:18.549Z,100823.75
2023-05-11T00:36:41.387Z,100819.50
2023-05-11T00:37:04.786Z,100827.34
2023-05-11T00:37:28.612Z,100823.75
2023-05-11T00:37:51.587Z,100821.00
2023-05-11T00:38:13.219Z,100828.94
2023-05-11T00:38:37.549Z,100824.53
2023-05-11T00:39:00.492Z,100818.56
2023-05-11T00:39:23.239Z,100818.56
2023-05-11T00:39:44.999Z,100819.25
2023-05-11T00:40:07.672Z,100823.75
2023-05-11T00:40:32.083Z,100822.78
2023-05-11T00:40:53.720Z,100806.97
2023-05-11T00:41:15.848Z,100813.97
2023-05-11T00:41:37.751Z,100816.44
2023-05-11T00:41:59.382Z,100823.66
2023-05-11T00:42:21.967Z,100821.00
2023-05-11T00:42:43.618Z,100813.97
2023-05-11T00:43:05.270Z,100821.94
2023-05-11T00:43:26.863Z,100824.59
2023-05-11T00:43:48.485Z,100818.13
2023-05-11T00:44:12.220Z,100823.41
2023-05-11T00:44:33.917Z,100820.75
2023-05-11T00:44:55.594Z,100811.78
2023-05-11T00:45:17.349Z,100822.41
2023-05-11T00:45:40.481Z,100812.72
2023-05-11T00:46:03.206Z,100817.78
2023-05-11T00:46:24.942Z,100812.47
2023-05-11T00:46:46.756Z,100824.00
2023-05-11T00:47:09.533Z,100818.66
2023-05-11T00:47:31.930Z,100825.00
2023-05-11T00:47:53.693Z,100819.59
2023-05-11T00:48:15.951Z,100819.72
2023-05-11T00:48:38.865Z,100824.28
2023-05-11T00:49:00.570Z,100818.94
2023-05-11T00:49:22.861Z,100812.09
2023-05-11T00:49:45.939Z,100813.88
2023-05-11T00:50:09.788Z,100822.72
2023-05-11T00:50:31.459Z,100814.59
2023-05-11T00:50:54.699Z,100812.78
2023-05-11T00:51:16.977Z,100818.06
2023-05-11T00:51:41.050Z,100825.22
2023-05-11T00:52:03.159Z,100821.69
2023-05-11T00:52:25.173Z,100811.91
2023-05-11T00:52:47.750Z,100820.75
2023-05-11T00:53:09.471Z,100822.47
2023-05-11T00:53:32.439Z,100820.56
2023-05-11T00:53:54.108Z,100816.00
2023-05-11T00:54:16.064Z,100821.34
2023-05-11T00:54:38.054Z,100824.00
2023-05-11T00:55:00.628Z,100818.53
2023-05-11T00:55:22.460Z,100802.78
2023-05-11T00:55:44.661Z,100819.41
2023-05-11T00:56:07.234Z,100815.00
2023-05-11T00:56:29.021Z,100817.47
2023-05-11T00:56:51.748Z,100814.06
2023-05-11T00:57:13.546Z,100818.47
2023-05-11T00:57:36.195Z,100818.47
2023-05-11T00:57:57.862Z,100828.94
2023-05-11T00:58:19.942Z,100818.28
2023-05-11T00:58:42.584Z,100824.38
2023-05-11T00:59:04.677Z,100817.47
2023-05-11T00:59:26.925Z,100826.25
2023-05-11T00:59:49.502Z,100814.84
2023-05-11T01:00:12.244Z,100825.31
2023-05-11T01:00:35.009Z,100831.56
2023-05-11T01:00:56.791Z,100830.63
2023-05-11T01:01:18.850Z,100823.34
2023-05-11T01:01:40.605Z,100822.47
2023-05-11T01:02:04.501Z,100824.22
2023-05-11T01:02:26.869Z,100827.81
2023-05-11T01:02:49.088Z,100827.94
2023-05-11T01:03:11.560Z,100824.22
2023-05-11T01:03:34.286Z,100821.38
2023-05-11T01:03:57.836Z,100816.41
2023-05-11T01:04:19.868Z,100827.69
2023-05-11T01:04:41.660Z,100833.13
2023-05-11T01:05:03.498Z,100832.19
2023-05-11T01:05:33.420Z,100834.06
2023-05-11T01:06:05.388Z,100826.13
2023-05-11T01:06:32.280Z,100822.66
2023-05-11T01:07:04.475Z,100830.50
2023-05-11T01:07:32.292Z,100834.16
2023-05-11T01:08:03.338Z,100829.75
2023-05-11T01:08:35.363Z,100833.38
2023-05-11T01:09:03.297Z,100831.69
2023-05-11T01:09:38.466Z,100830.06
2023-05-11T01:10:06.362Z,100831.81
2023-05-11T01:10:35.263Z,100830.84
2023-05-11T01:11:02.453Z,100836.13
2023-05-11T01:11:33.817Z,100837.06
2023-05-11T01:12:07.492Z,100838.97
2023-05-11T01:12:39.026Z,100835.41
2023-05-11T01:13:09.694Z,100830.13
2023-05-11T01:13:37.428Z,100829.25
2023-05-11T01:14:06.492Z,100831.19
2023-05-11T01:14:38.739Z,100808.72
2023-05-11T01:15:08.369Z,100825.00
2023-05-11T01:15:36.933Z,100832.09
2023-05-11T01:16:05.431Z,100828.50
2023-05-11T01:16:30.433Z,100831.94
2023-05-11T01:16:57.123Z,100831.06
2023-05-11T01:17:25.598Z,100823.13
2023-05-11T01:17:55.752Z,100831.06
2023-05-11T01:18:25.043Z,100836.53
2023-05-11T01:18:53.360Z,100817.13
2023-05-11T01:19:24.104Z,100824.88
2023-05-11T01:19:59.733Z,100823.34
2023-05-11T01:20:26.266Z,100823.41
2023-05-11T01:20:51.218Z,100824.53
2023-05-11T01:21:17.303Z,100831.53
2023-05-11T01:21:42.230Z,100830.84
2023-05-11T01:22:10.220Z,100829.97
2023-05-11T01:22:44.588Z,100818.56
2023-05-11T01:23:42.852Z,100822.47
2023-05-11T01:24:27.147Z,100824.13
2023-05-11T01:25:05.578Z,100824.03
2023-05-11T01:25:48.953Z,100823.34
2023-05-11T01:26:26.275Z,100829.56
2023-05-11T01:27:01.790Z,100830.53
2023-05-11T01:27:50.254Z,100825.16
2023-05-11T01:28:26.159Z,100830.53
2023-05-11T01:29:10.671Z,100827.84
2023-05-11T01:30:08.262Z,100824.53
2023-05-11T01:30:36.316Z,100824.53
2023-05-11T01:31:04.283Z,100829.81
2023-05-11T01:31:31.001Z,100831.00
2023-05-11T01:31:58.322Z,100823.91
2023-05-11T01:32:27.686Z,100825.97
2023-05-11T01:32:50.844Z,100829.09
2023-05-11T01:33:17.526Z,100826.41
2023-05-11T01:33:52.582Z,100824.78
2023-05-11T01:34:24.979Z,100815.88
2023-05-11T01:34:54.572Z,100821.22
2023-05-11T01:35:21.112Z,100821.47
2023-05-11T01:35:56.702Z,100827.78
2023-05-11T01:36:25.711Z,100824.06
2023-05-11T01:36:58.057Z,100825.78
2023-05-11T01:37:23.905Z,100820.59
2023-05-11T01:37:52.340Z,100819.91
2023-05-11T01:38:16.832Z,100820.91
2023-05-11T01:38:44.257Z,100822.72
2023-05-11T01:39:12.765Z,100811.00
2023-05-11T01:39:52.313Z,100823.34
2023-05-11T01:40:20.472Z,100827.84
2023-05-11T01:40:48.455Z,100801.84
2023-05-11T01:41:25.989Z,100823.66
2023-05-11T01:41:53.642Z,100826.19
2023-05-11T01:42:17.465Z,100817.31
2023-05-11T01:42:44.593Z,100817.63
2023-05-11T01:43:10.955Z,100819.19
2023-05-11T01:43:36.779Z,100826.13
2023-05-11T01:44:03.014Z,100820.91
2023-05-11T01:44:27.579Z,100824.41
2023-05-11T01:44:53.870Z,100822.59
2023-05-11T01:45:17.179Z,100823.28
2023-05-11T01:45:47.396Z,100828.56
2023-05-11T01:46:13.993Z,100818.88
2023-05-11T01:46:35.963Z,100823.34
2023-05-11T01:47:01.989Z,100824.28
2023-05-11T01:47:26.239Z,100828.00
2023-05-11T01:47:50.895Z,100824.63
2023-05-11T01:48:17.124Z,100822.97
2023-05-11T01:48:43.394Z,100829.13
2023-05-11T01:49:06.934Z,100834.56
2023-05-11T01:49:32.683Z,100822.97
2023-05-11T01:49:56.864Z,100826.44
2023-05-11T01:50:22.197Z,100827.31
2023-05-11T01:50:45.986Z,100829.03
2023-05-11T01:51:09.093Z,100829.03
2023-05-11T01:51:34.572Z,100829.81
2023-05-11T01:51:58.749Z,100821.72
2023-05-11T01:52:23.523Z,100829.66
2023-05-11T01:52:47.740Z,100829.56
2023-05-11T01:53:10.929Z,100827.69
2023-05-11T01:53:37.932Z,100825.91
2023-05-11T01:54:01.726Z,100833.19
2023-05-11T01:54:24.419Z,100836.91
2023-05-11T01:54:48.603Z,100836.06
2023-05-11T01:55:12.231Z,100834.38
2023-05-11T01:55:35.553Z,100833.53
2023-05-11T01:55:58.756Z,100840.59
2023-05-11T01:56:22.387Z,100839.91
2023-05-11T01:56:46.096Z,100834.78
2023-05-11T01:57:09.756Z,100841.09
2023-05-11T01:57:32.782Z,100833.97
2023-05-11T01:57:56.501Z,100840.31
2023-05-11T01:58:20.677Z,100839.50
2023-05-11T01:58:44.500Z,100840.44
2023-05-11T01:59:06.789Z,100842.25
2023-05-11T01:59:29.795Z,100845.16
2023-05-11T01:59:54.441Z,100839.97
2023-05-11T02:00:17.278Z,100836.44
2023-05-11T02:00:43.159Z,100849.25
2023-05-11T02:01:06.820Z,100835.16
2023-05-11T02:01:30.493Z,100833.66
2023-05-11T02:01:53.159Z,100848.47
2023-05-11T02:02:16.540Z,100846.69
2023-05-11T02:02:38.578Z,100830.13
2023-05-11T02:03:02.604Z,100846.50
2023-05-11T02:03:27.410Z,100842.97
2023-05-11T02:03:51.526Z,100843.91
2023-05-11T02:04:15.675Z,100851.94
2023-05-11T02:04:40.179Z,100844.78
2023-05-11T02:05:03.296Z,100844.06
2023-05-11T02:05:28.433Z,100845.88
2023-05-11T02:05:52.422Z,100847.50
2023-05-11T02:06:16.095Z,100817.84
2023-05-11T02:06:39.374Z,100831.44
2023-05-11T02:07:03.354Z,100845.47
2023-05-11T02:07:27.367Z,100845.63
2023-05-11T02:07:51.203Z,100844.84
2023-05-11T02:08:14.460Z,100850.28
2023-05-11T02:08:39.215Z,100845.00
2023-05-11T02:09:01.879Z,100845.00
2023-05-11T02:09:24.731Z,100853.09
2023-05-11T02:09:49.818Z,100838.06
2023-05-11T02:10:13.976Z,100843.50
2023-05-11T02:10:37.884Z,100839.94
2023-05-11T02:11:02.541Z,100847.97
2023-05-11T02:11:26.593Z,100839.25
2023-05-11T02:11:49.826Z,100844.44
2023-05-11T02:12:15.354Z,100842.56
2023-05-11T02:12:39.754Z,100846.28
2023-05-11T02:13:03.036Z,100842.63
2023-05-11T02:13:26.666Z,100848.78
2023-05-11T02:13:51.630Z,100850.53
2023-05-11T02:14:16.568Z,100851.47
2023-05-11T02:14:39.465Z,100850.66
2023-05-11T02:15:03.034Z,100847.97
2023-05-11T02:15:25.967Z,100856.97
2023-05-11T02:15:53.777Z,100853.50
2023-05-11T02:16:18.301Z,100841.13
2023-05-11T02:16:41.408Z,100854.31
2023-05-11T02:17:04.280Z,100851.63
2023-05-11T02:17:28.162Z,100841.91
2023-05-11T02:17:51.257Z,100848.63
2023-05-11T02:18:15.729Z,100857.44
2023-05-11T02:18:40.095Z,100851.22
2023-05-11T02:19:04.230Z,100853.03
2023-05-11T02:19:26.725Z,100856.50
2023-05-11T02:19:49.629Z,100850.19
2023-05-11T02:20:13.310Z,100853.72
2023-05-11T02:20:37.270Z,100850.28
2023-05-11T02:21:00.201Z,100857.22
2023-05-11T02:21:22.775Z,100844.78
2023-05-11T02:21:45.721Z,100858.84
2023-05-11T02:22:10.155Z,100856.28
2023-05-11T02:22:33.424Z,100860.53
2023-05-11T02:22:56.550Z,100854.31
2023-05-11T02:23:19.525Z,100859.81
2023-05-11T02:23:42.121Z,100856.34
2023-05-11T02:24:06.868Z,100864.22
2023-05-11T02:24:30.839Z,100861.41
2023-05-11T02:24:52.543Z,100856.97
2023-05-11T02:25:16.673Z,100858.09
2023-05-11T02:25:40.611Z,100851.38
2023-05-11T02:26:04.953Z,100859.19
2023-05-11T02:26:26.667Z,100852.97
2023-05-11T02:26:48.246Z,100854.84
2023-05-11T02:27:10.127Z,100851.28
2023-05-11T02:27:35.836Z,100827.97
2023-05-11T02:27:57.529Z,100850.53
2023-05-11T02:28:19.882Z,100836.72
2023-05-11T02:28:41.720Z,100854.06
2023-05-11T02:29:03.429Z,100846.34
2023-05-11T02:29:26.364Z,100853.03
2023-05-11T02:29:49.048Z,100847.84
2023-05-11T02:30:12.772Z,100854.59
2023-05-11T02:30:41.032Z,100859.81
2023-05-11T02:31:10.438Z,100853.59
2023-05-11T02:31:38.930Z,100856.19
2023-05-11T02:32:06.478Z,100838.88
2023-05-11T02:32:30.648Z,100850.75
2023-05-11T02:32:56.218Z,100855.34
2023-05-11T02:33:21.873Z,100857.03
2023-05-11T02:33:50.813Z,100848.94
2023-05-11T02:34:20.833Z,100848.00
2023-05-11T02:34:45.624Z,100849.75
2023-05-11T02:35:13.049Z,100843.44
2023-05-11T02:35:40.906Z,100857.63
2023-05-11T02:36:06.094Z,100850.44
2023-05-11T02:36:31.036Z,100846.91
2023-05-11T02:36:55.771Z,100850.53
2023-05-11T02:37:23.462Z,100848.66
2023-05-11T02:37:49.206Z,100845.09
2023-05-11T02:38:14.455Z,100846.91
2023-05-11T02:38:38.073Z,100851.41
2023-05-11T02:39:06.229Z,100838.41
2023-05-11T02:39:36.012Z,100846.97
2023-05-11T02:40:02.550Z,100844.28
2023-05-11T02:40:30.669Z,100847.94
2023-05-11T02:40:58.224Z,100850.38
2023-05-11T02:41:26.741Z,100848.66
2023-05-11T02:41:56.318Z,100845.97
2023-05-11T02:42:21.964Z,100849.53
2023-05-11T02:42:49.930Z,100847.59
2023-05-11T02:43:13.738Z,100856.50
2023-05-11T02:43:47.091Z,100855.56
2023-05-11T02:44:12.242Z,100848.41
2023-05-11T02:44:40.705Z,100850.38
2023-05-11T02:45:11.091Z,100859.19
2023-05-11T02:45:39.697Z,100852.09
2023-05-11T02:46:12.186Z,100853.84
2023-05-11T02:46:45.223Z,100851.25
2023-05-11T02:47:13.256Z,100857.44
2023-05-11T02:47:43.997Z,100849.28
2023-05-11T02:48:16.622Z,100849.91
2023-05-11T02:48:49.606Z,100853.34
2023-05-11T02:49:24.137Z,100861.63
2023-05-11T02:49:54.920Z,100850.84
2023-05-11T02:50:25.497Z,100857.16
2023-05-11T02:50:53.836Z,100857.06
2023-05-11T02:51:20.733Z,100856.03
2023-05-11T02:51:48.668Z,100856.84
2023-05-11T02:52:14.234Z,100854.97
2023-05-11T02:52:49.425Z,100849.75
2023-05-11T02:53:17.280Z,100852.34
2023-05-11T02:53:45.941Z,100853.28
2023-05-11T02:54:14.702Z,100857.00
2023-05-11T02:54:45.509Z,100855.16
2023-05-11T02:55:10.828Z,100853.34
2023-05-11T02:55:32.596Z,100849.97
2023-05-11T02:55:54.934Z,100839.69
2023-05-11T02:56:18.170Z,100848.25
2023-05-11T02:56:41.084Z,100844.94
2023-05-11T02:57:04.004Z,100849.34
2023-05-11T02:57:26.431Z,100851.97
2023-05-11T02:57:55.502Z,100847.31
2023-05-11T02:58:18.540Z,100846.44
2023-05-11T02:58:44.422Z,100846.44
2023-05-11T02:59:16.190Z,100846.50
2023-05-11T02:59:39.132Z,100849.28
2023-05-11T03:00:01.488Z,100842.25
2023-05-11T03:00:23.349Z,100854.34
2023-05-11T03:00:45.978Z,100850.78
2023-05-11T03:01:09.166Z,100844.63
2023-05-11T03:01:32.293Z,100850.69
2023-05-11T03:01:54.672Z,100851.47
2023-05-11T03:02:16.906Z,100847.00
2023-05-11T03:02:38.702Z,100850.44
2023-05-11T03:03:02.710Z,100853.22
2023-05-11T03:03:24.911Z,100841.78
2023-05-11T03:03:46.938Z,100852.50
2023-05-11T03:04:09.224Z,100844.56
2023-05-11T03:04:32.109Z,100847.25
2023-05-11T03:04:53.754Z,100848.19
2023-05-11T03:05:15.521Z,100853.53
2023-05-11T03:05:37.256Z,100849.09
2023-05-11T03:06:00.026Z,100843.00
2023-05-11T03:06:23.000Z,100848.97
2023-05-11T03:06:44.741Z,100848.81
2023-05-11T03:07:06.905Z,100846.28
2023-05-11T03:07:29.775Z,100850.63
2023-05-11T03:07:51.867Z,100850.78
2023-05-11T03:08:13.796Z,100848.19
2023-05-11T03:08:36.063Z,100848.00
2023-05-11T03:08:58.113Z,100847.06
2023-05-11T03:09:22.344Z,100845.44
2023-05-11T03:09:44.703Z,100854.22
2023-05-11T03:10:08.297Z,100852.50
2023-05-11T03:10:33.334Z,100850.69
2023-05-11T03:10:56.739Z,100852.41
2023-05-11T03:11:19.661Z,100860.47
2023-05-11T03:11:43.158Z,100847.13
2023-05-11T03:12:07.213Z,100853.22
2023-05-11T03:12:33.841Z,100851.31
2023-05-11T03:12:56.737Z,100850.25
2023-05-11T03:13:20.192Z,100853.75
2023-05-11T03:13:43.960Z,100844.72
2023-05-11T03:14:06.366Z,100848.25
2023-05-11T03:14:28.428Z,100846.59
2023-05-11T03:14:52.655Z,100847.56
2023-05-11T03:15:15.905Z,100845.09
2023-05-11T03:15:42.396Z,100851.00
2023-05-11T03:16:05.953Z,100851.94
2023-05-11T03:16:31.281Z,100845.88
2023-05-11T03:16:55.361Z,100846.44
2023-05-11T03:17:20.900Z,100849.91
2023-05-11T03:17:44.179Z,100848.97
2023-05-11T03:18:09.340Z,100852.44
2023-05-11T03:18:32.360Z,100848.16
2023-05-11T03:18:56.144Z,100846.44
2023-05-11T03:19:18.633Z,100843.78
2023-05-11T03:19:42.048Z,100852.75
2023-05-11T03:20:07.471Z,100842.97
2023-05-11T03:20:31.519Z,100846.59
2023-05-11T03:20:53.272Z,100844.78
2023-05-11T03:21:18.207Z,100843.84
2023-05-11T03:21:40.066Z,100838.47
2023-05-11T03:22:03.545Z,100849.25
2023-05-11T03:22:26.010Z,100846.59
2023-05-11T03:22:49.316Z,100839.59
2023-05-11T03:23:12.066Z,100837.84
2023-05-11T03:23:36.455Z,100844.63
2023-05-11T03:23:58.936Z,100842.91
2023-05-11T03:24:21.256Z,100848.25
2023-05-11T03:24:43.428Z,100841.97
2023-05-11T03:25:07.868Z,100849.81
2023-05-11T03:25:30.604Z,100848.97
2023-05-11T03:25:52.417Z,100844.72
2023-05-11T03:26:17.017Z,100843.78
2023-05-11T03:26:42.483Z,100853.44
2023-05-11T03:27:06.686Z,100857.00
2023-05-11T03:27:29.419Z,100853.44
2023-05-11T03:27:53.423Z,100854.47
2023-05-11T03:28:16.196Z,100853.44
2023-05-11T03:28:47.998Z,100852.56
2023-05-11T03:29:11.604Z,100850.69
2023-05-11T03:29:38.281Z,100852.44
2023-05-11T03:30:01.471Z,100848.88
2023-05-11T03:30:30.044Z,100845.28
2023-05-11T03:30:54.520Z,100842.66
2023-05-11T03:31:16.239Z,100849.91
2023-05-11T03:31:39.503Z,100848.31
2023-05-11T03:32:01.533Z,100823.28
2023-05-11T03:32:26.688Z,100847.38
2023-05-11T03:32:49.840Z,100846.69
2023-05-11T03:33:12.105Z,100853.06
2023-05-11T03:33:33.776Z,100850.53
2023-05-11T03:33:57.392Z,100848.88
2023-05-11T03:34:20.459Z,100850.78
2023-05-11T03:34:42.622Z,100849.91
2023-05-11T03:35:08.991Z,100853.28
2023-05-11T03:35:34.898Z,100853.28
2023-05-11T03:35:59.758Z,100843.69
2023-05-11T03:36:23.560Z,100846.28
2023-05-11T03:36:48.318Z,100847.25
2023-05-11T03:37:16.201Z,100856.28
2023-05-11T03:37:38.260Z,100842.13
2023-05-11T03:38:09.216Z,100841.88
2023-05-11T03:38:35.306Z,100845.31
2023-05-11T03:39:04.768Z,100855.28
2023-05-11T03:39:36.798Z,100849.91
2023-05-11T03:40:04.517Z,100849.19
2023-05-11T03:40:38.578Z,100848.19
2023-05-11T03:41:04.397Z,100848.00
2023-05-11T03:41:35.001Z,100846.28
2023-05-11T03:42:02.498Z,100840.94
2023-05-11T03:42:30.414Z,100847.31
2023-05-11T03:43:49.324Z,100848.09
2023-05-11T03:44:22.277Z,100839.22
2023-05-11T03:44:55.973Z,100847.25
2023-05-11T03:45:22.354Z,100842.03
2023-05-11T03:45:47.075Z,100839.44
2023-05-11T03:46:16.990Z,100843.06
2023-05-11T03:46:48.807Z,100837.63
2023-05-11T03:47:12.735Z,100841.09
2023-05-11T03:47:40.594Z,100842.13
2023-05-11T03:48:07.250Z,100845.66
2023-05-11T03:48:39.260Z,100840.44
2023-05-11T03:49:04.718Z,100843.28
2023-05-11T03:49:32.533Z,100845.72
2023-05-11T03:49:58.496Z,100843.06
2023-05-11T03:50:23.781Z,100846.59
2023-05-11T03:50:46.682Z,100844.00
2023-05-11T03:51:13.084Z,100831.00
2023-05-11T03:51:36.576Z,100836.84
2023-05-11T03:52:10.151Z,100844.88
2023-05-11T03:52:37.799Z,100847.47
2023-05-11T03:53:05.555Z,100839.44
2023-05-11T03:53:30.725Z,100840.53
2023-05-11T03:53:55.234Z,100840.44
2023-05-11T03:54:23.780Z,100838.63
2023-05-11T03:54:50.976Z,100843.13
2023-05-11T03:55:14.346Z,100839.50
2023-05-11T03:55:45.328Z,100846.59
2023-05-11T03:56:08.600Z,100842.88
2023-05-11T03:56:35.568Z,100840.22
2023-05-11T03:56:59.638Z,100840.22
2023-05-11T03:57:29.189Z,100837.47
2023-05-11T03:57:54.420Z,100835.78
2023-05-11T03:58:20.585Z,100837.53
2023-05-11T03:58:46.463Z,100832.19
2023-05-11T03:59:19.373Z,100842.59
2023-05-11T03:59:52.369Z,100835.25
2023-05-11T04:00:21.302Z,100837.06
2023-05-11T04:00:50.522Z,100835.25
2023-05-11T04:01:17.588Z,100840.59
2023-05-11T04:01:45.325Z,100834.47
2023-05-11T04:02:10.801Z,100840.84
2023-05-11T04:02:45.109Z,100843.63
2023-05-11T04:03:11.165Z,100834.78
2023-05-11T04:03:36.998Z,100840.13
2023-05-11T04:04:04.562Z,100840.22
2023-05-11T04:04:36.984Z,100838.56
2023-05-11T04:05:10.825Z,100838.81
2023-05-11T04:05:35.443Z,100834.31
2023-05-11T04:06:02.803Z,100840.44
2023-05-11T04:06:27.673Z,100833.22
2023-05-11T04:07:10.923Z,100835.03
2023-05-11T04:07:39.639Z,100840.38
2023-05-11T04:08:02.452Z,100839.34
2023-05-11T04:08:24.113Z,100843.00
2023-05-11T04:08:47.036Z,100843.81
2023-05-11T04:09:08.655Z,100836.53
2023-05-11T04:09:30.703Z,100839.22
2023-05-11T04:09:53.608Z,100839.09
2023-05-11T04:10:15.186Z,100841.78
2023-05-11T04:10:38.217Z,100832.97
2023-05-11T04:10:59.834Z,100839.22
2023-05-11T04:11:23.974Z,100841.78
2023-05-11T04:11:45.629Z,100840.94
2023-05-11T04:12:07.295Z,100841.78
2023-05-11T04:12:28.986Z,100832.91
2023-05-11T04:12:52.845Z,100839.22
2023-05-11T04:13:14.486Z,100839.28
2023-05-11T04:13:37.409Z,100846.44
2023-05-11T04:13:59.791Z,100833.13
2023-05-11T04:14:23.090Z,100837.69
2023-05-11T04:14:44.734Z,100830.53
2023-05-11T04:15:07.470Z,100838.56
2023-05-11T04:15:29.893Z,100834.09
2023-05-11T04:15:54.397Z,100833.22
2023-05-11T04:16:16.161Z,100842.03
2023-05-11T04:16:38.116Z,100833.97
2023-05-11T04:17:01.612Z,100834.09
2023-05-11T04:17:24.298Z,100833.28
2023-05-11T04:17:46.090Z,100838.56
2023-05-11T04:18:09.951Z,100834.84
2023-05-11T04:18:36.131Z,100841.09
2023-05-11T04:19:02.876Z,100842.75
2023-05-11T04:19:29.670Z,100842.81
2023-05-11T04:19:55.422Z,100834.72
2023-05-11T04:20:19.306Z,100838.25
2023-05-11T04:20:44.104Z,100836.28
2023-05-11T04:21:11.763Z,100842.50
2023-05-11T04:21:39.684Z,100836.22
2023-05-11T04:22:03.166Z,100837.78
2023-05-11T04:22:32.694Z,100834.94
2023-05-11T04:22:55.796Z,100820.91
2023-05-11T04:23:38.749Z,100839.28
2023-05-11T04:24:07.944Z,100844.63
2023-05-11T04:24:35.754Z,100841.22
2023-05-11T04:24:59.851Z,100843.91
2023-05-11T04:25:45.454Z,100840.38
2023-05-11T04:26:09.702Z,100833.53
2023-05-11T04:26:37.258Z,100842.22
2023-05-11T04:27:00.840Z,100841.22
2023-05-11T04:27:40.371Z,100840.28
2023-05-11T04:28:09.791Z,100847.38
2023-05-11T04:28:34.651Z,100847.47
2023-05-11T04:29:10.096Z,100840.53
2023-05-11T04:29:40.095Z,100842.22
2023-05-11T04:30:05.468Z,100845.09
2023-05-11T04:30:29.035Z,100853.28
2023-05-11T04:30:59.919Z,100848.88
2023-05-11T04:31:26.091Z,100846.28
2023-05-11T04:31:54.485Z,100844.56
2023-05-11T04:32:20.813Z,100841.88
2023-05-11T04:32:46.361Z,100847.38
2023-05-11T04:33:12.713Z,100848.34
2023-05-11T04:33:39.656Z,100854.63
2023-05-11T04:34:09.233Z,100842.25
2023-05-11T04:34:33.878Z,100836.13
2023-05-11T04:35:54.108Z,100848.66
2023-05-11T04:36:18.787Z,100847.94
2023-05-11T04:36:47.555Z,100849.81
2023-05-11T04:37:10.399Z,100847.16
2023-05-11T04:37:45.349Z,100848.00
2023-05-11T04:38:12.137Z,100850.69
2023-05-11T04:38:33.936Z,100834.94
2023-05-11T04:38:57.359Z,100851.31
2023-05-11T04:39:19.208Z,100849.41
2023-05-11T04:39:42.663Z,100852.03
2023-05-11T04:40:05.364Z,100856.50
2023-05-11T04:40:36.612Z,100851.16
2023-05-11T04:41:03.898Z,100855.50
2023-05-11T04:41:26.026Z,100851.84
2023-05-11T04:41:50.080Z,100854.53
2023-05-11T04:42:12.337Z,100851.03
2023-05-11T04:42:35.506Z,100851.09
2023-05-11T04:42:58.901Z,100850.22
2023-05-11T04:43:20.697Z,100842.25
2023-05-11T04:43:42.494Z,100854.25
2023-05-11T04:44:05.129Z,100846.28
2023-05-11T04:44:27.778Z,100849.75
2023-05-11T04:44:52.526Z,100855.97
2023-05-11T04:45:14.203Z,100852.25
2023-05-11T04:45:36.764Z,100846.91
2023-05-11T04:46:00.194Z,100830.63
2023-05-11T04:46:23.525Z,100848.47
2023-05-11T04:46:45.294Z,100851.16
2023-05-11T04:47:07.062Z,100855.63
2023-05-11T04:47:31.042Z,100853.75
2023-05-11T04:47:53.113Z,100860.75
2023-05-11T04:48:14.910Z,100858.09
2023-05-11T04:48:36.659Z,100857.16
2023-05-11T04:48:59.888Z,100852.72
2023-05-11T04:49:22.618Z,100858.00
2023-05-11T04:49:44.951Z,100860.75
2023-05-11T04:50:07.512Z,100862.50
2023-05-11T04:50:31.368Z,100850.63
2023-05-11T04:50:53.595Z,100866.53
2023-05-11T04:51:16.340Z,100856.75
2023-05-11T04:51:40.415Z,100858.66
2023-05-11T04:52:02.102Z,100856.81
2023-05-11T04:52:24.765Z,100853.59
2023-05-11T04:52:46.452Z,100861.41
2023-05-11T04:53:09.022Z,100856.91
2023-05-11T04:53:30.639Z,100859.59